UPSVAC Airport Information Service

Philadelphia International Airport

ICAO: KPHL Country: United States
Latitude: 39.8719 Longitude: -75.2411
Latest Arrival : UPS959 (KCAE-KPHL) Latest Departure : UPS860 (KPHL-KRFD)


WX CaptureLIVE
Data provided by noaa.gov | Fetched at 11:03:16

METAR : KPHL 271054Z 26009KT 7SM OVC050 02/01 A2996 RMK AO2 SLP146 T00220011

TAF : KPHL 270902Z 2709/2812 28006KT P6SM SCT006 BKN045 TEMPO 2709/2712 5SM BR BKN006 BKN045 FM271200 30010KT P6SM BKN050 FM271400 32012G20KT P6SM SCT050 FM272200 34010KT P6SM SCT050 FM281000 34012G20KT P6SM BKN080


Runway Data for KPHL
Data provided by openaviationdata.com

Runway ID Mag Var Hdg Length Elevation Surface ILS Freq ILS Id ILS Slope
8 -10 85° 4993 ft 36 ft Asphalt -- -- --
09L -10 85° 9488 ft 36 ft Concrete 108.95 IVII 3
09R -10 85° 10486 ft 36 ft Asphalt 109.3 IPHL 3
17 -10 169° 6503 ft 36 ft Concrete 108.75 IMYY 3
26 -10 265° 4993 ft 36 ft Asphalt 111.55 ILLH 3
27L -10 265° 10486 ft 36 ft Asphalt 109.3 IGLC 3
27R -10 265° 9488 ft 36 ft Concrete 108.95 IPDP 3
35 -10 349° 6503 ft 36 ft Concrete -- -- --

Philadelphia International Airport, United States
Use only for reference purposes



Not for navigational purposes.